Terminal Aerodrome Forecast
Issued by NWS Twin Cities, MN

Home | Current Version | Previous Version | Text Only | Print | Product List | Glossary On
Versions: 1 2 3 4 5 6 7 8 9 10 11 12 13 14 15 16 17 18 19 20 21
000
FTUS43 KMPX 291700
TAFEAU
TAF
KEAU 291725Z 2918/3018 17007KT P6SM BKN012 BKN035
     FM292000 19008KT P6SM VCSH SCT015 BKN035
     FM292300 21008KT P6SM -SHRA VCTS SCT025 BKN050CB
      TEMPO 2923/3003 2SM +TSRA BKN025CB
     FM300600 VRB02KT P6SM SCT009 OVC020
     FM300800 33004KT 2SM BR OVC004
     FM301500 35006KT 6SM BR SCT006 OVC012=

USA.gov is the U.S. government's official web portal to all federal, state and local government web resources and services.